This is the latest recevied weather packets stored in our database for station/object WW1TA. If no packets are shown the sender has not sent any weather packets the latest 1 day(s).
| Time | Temp. | Humidity | Pressure | Rain* | Wind** | Luminosity | Snow |
|---|---|---|---|---|---|---|---|
| 1777993880 | 25.56° C | 51% | 1020.6 hPa | 0 mm | 0 m/s | 724 W/m² | - |
| 1777993576 | 26.11° C | 50% | 1020.8 hPa | 0 mm | 0 m/s | 632 W/m² | - |
| 1777993274 | 25.56° C | 52% | 1020.5 hPa | 0 mm | 0.89 m/s, 326° | 471 W/m² | - |
| 1777992969 | 25.56° C | 52% | 1020.4 hPa | 0 mm | 0 m/s | 708 W/m² | - |
| 1777992668 | 24.44° C | 55% | 1020.4 hPa | 0 mm | 1.34 m/s, 251° | 711 W/m² | - |
| 1777992365 | 25.56° C | 50% | 1020.4 hPa | 0 mm | 1.34 m/s, 334° | 588 W/m² | - |
| 1777992063 | 25° C | 53% | 1020.3 hPa | 0 mm | 0.89 m/s, 285° | 692 W/m² | - |
| 1777991760 | 25° C | 53% | 1020.3 hPa | 0 mm | 0 m/s | 714 W/m² | - |
| 1777991457 | 24.44° C | 55% | 1020.2 hPa | 0 mm | 0.89 m/s, 268° | 599 W/m² | - |
| 1777991154 | 23.33° C | 56% | 1020.4 hPa | 0 mm | 3.13 m/s, 33° | 612 W/m² | - |
| 1777990851 | 23.33° C | 56% | 1020.4 hPa | 0 mm | 0.89 m/s, 262° | 120 W/m² | - |
| 1777990548 | 23.89° C | 55% | 1020.3 hPa | 0 mm | 0.89 m/s, 296° | 194 W/m² | - |
| 1777990245 | 24.44° C | 54% | 1020.3 hPa | 0 mm | 0.89 m/s, 102° | 591 W/m² | - |
| 1777989942 | 23.89° C | 56% | 1020.2 hPa | 0 mm | 0.45 m/s, 29° | 626 W/m² | - |
| 1777989638 | 23.33° C | 56% | 1020.5 hPa | 0 mm | 0.89 m/s, 289° | 585 W/m² | - |
| 1777989335 | 23.33° C | 55% | 1020.5 hPa | 0 mm | 1.34 m/s, 336° | 587 W/m² | - |
| 1777989031 | 23.33° C | 57% | 1020.2 hPa | 0 mm | 0.89 m/s, 250° | 330 W/m² | - |
| 1777988727 | 23.33° C | 60% | 1020.3 hPa | 0 mm | 1.79 m/s, 45° | 675 W/m² | - |
| 1777988425 | 22.78° C | 59% | 1020.4 hPa | 0 mm | 1.34 m/s, 340° | 471 W/m² | - |
| 1777988122 | 21.67° C | 62% | 1020.3 hPa | 0 mm | 1.34 m/s, 309° | 104 W/m² | - |
| 1777987818 | 21.11° C | 64% | 1020 hPa | 0 mm | 0.89 m/s, 48° | 59 W/m² | - |
| 1777987514 | 21.11° C | 67% | 1020.1 hPa | 0 mm | 0.45 m/s, 243° | 55 W/m² | - |
| 1777987212 | 20.56° C | 67% | 1020.1 hPa | 0 mm | 0 m/s | 71 W/m² | - |
| 1777986908 | 20.56° C | 68% | 1019.9 hPa | 0 mm | 0.45 m/s, 279° | 106 W/m² | - |
| 1777986606 | 20.56° C | 67% | 1020 hPa | 0 mm | 0 m/s | 51 W/m² | - |
* Rain latest hour (hover to see other rain measurements)
** Current wind speed in m/s (hover to see current wind gust speed)